Time;durP1;ratioP1;P1;durP2;ratioP2;P2;SDS_P1;SDS_P2;PMS_P1;PMS_P2;Temp;Humidity;BMP_temperature;BMP_pressure;BME280_temperature;BME280_humidity;BME280_pressure;Samples;Min_cycle;Max_cycle;Signal;HPM_P1;HPM_P2
2023/04/26 00:00:46;;;;;;;30.70;14.77;;;;;;;;;;5074067;28;20035;-67
2023/04/26 00:03:13;;;;;;;28.00;14.10;;;;;;;;;;5074222;28;20324;-70
2023/04/26 00:05:41;;;;;;;25.42;14.40;;;;;;;;;;5075531;28;20031;-69
2023/04/26 00:08:08;;;;;;;25.05;12.32;;;;;;;;;;5075748;28;20021;-69
2023/04/26 00:10:34;;;;;;;30.92;15.13;;;;;;;;;;5075513;28;20412;-70
2023/04/26 00:13:01;;;;;;;23.50;15.80;;;;;;;;;;5075367;28;20081;-67
2023/04/26 00:15:28;;;;;;;35.47;23.13;;;;;;;;;;5075464;28;20074;-69
2023/04/26 00:17:54;;;;;;;30.40;21.20;;;;;;;;;;5075332;28;20025;-69
2023/04/26 00:20:21;;;;;;;33.05;24.85;;;;;;;;;;5074917;28;20051;-67
2023/04/26 00:22:48;;;;;;;29.85;24.02;;;;;;;;;;5075208;28;20024;-68
2023/04/26 00:25:14;;;;;;;36.08;30.40;;;;;;;;;;5075306;28;20496;-69
2023/04/26 00:27:41;;;;;;;31.75;25.38;;;;;;;;;;5075114;28;20545;-68
2023/04/26 00:30:09;;;;;;;29.38;23.95;;;;;;;;;;5075178;28;20095;-69
2023/04/26 00:32:36;;;;;;;29.52;22.17;;;;;;;;;;5075190;28;20035;-69
2023/04/26 00:35:05;;;;;;;25.50;19.00;;;;;;;;;;5075108;28;20035;-68
2023/04/26 00:37:31;;;;;;;34.08;23.67;;;;;;;;;;5074897;28;20032;-69
2023/04/26 00:39:58;;;;;;;22.48;16.67;;;;;;;;;;5074944;28;20070;-70
2023/04/26 00:42:27;;;;;;;23.00;14.65;;;;;;;;;;5074899;28;20474;-69
2023/04/26 00:44:56;;;;;;;24.65;13.93;;;;;;;;;;5075086;28;20111;-69
2023/04/26 00:47:23;;;;;;;26.02;15.88;;;;;;;;;;5074816;28;20019;-71
2023/04/26 00:49:50;;;;;;;134.68;93.55;;;;;;;;;;5074628;28;20021;-70
2023/04/26 00:52:17;;;;;;;58.25;37.70;;;;;;;;;;5074677;28;20444;-70
2023/04/26 00:54:44;;;;;;;53.65;39.10;;;;;;;;;;5074652;28;20077;-71
2023/04/26 00:57:11;;;;;;;40.83;32.75;;;;;;;;;;5074437;28;20035;-69
2023/04/26 00:59:38;;;;;;;25.63;15.05;;;;;;;;;;5074581;28;20024;-71
2023/04/26 01:02:05;;;;;;;20.85;11.90;;;;;;;;;;5074670;28;20021;-72
2023/04/26 01:04:32;;;;;;;20.08;12.27;;;;;;;;;;5074331;28;20020;-69
2023/04/26 01:07:00;;;;;;;25.92;13.65;;;;;;;;;;5074578;28;20104;-71
2023/04/26 01:09:27;;;;;;;41.05;25.27;;;28.70;99.90;;;;;;5074357;28;20107;-67
2023/04/26 01:11:57;;;;;;;20.48;13.20;;;28.80;99.90;;;;;;5072935;28;20465;-67
2023/04/26 01:14:23;;;;;;;21.15;13.32;;;28.70;99.90;;;;;;5074177;28;20029;-67
2023/04/26 01:16:51;;;;;;;20.70;15.05;;;28.60;99.90;;;;;;5074167;28;20386;-67
2023/04/26 01:19:17;;;;;;;23.20;15.10;;;28.60;99.90;;;;;;5073837;28;20056;-67
2023/04/26 01:21:44;;;;;;;31.60;17.85;;;28.70;99.90;;;;;;5074260;28;20496;-66
2023/04/26 01:24:12;;;;;;;25.05;16.35;;;28.70;99.90;;;;;;5074263;28;20103;-66
2023/04/26 01:26:48;;;;;;;22.65;15.35;;;28.70;99.90;;;;;;5073916;28;20071;-67
2023/04/26 01:29:16;;;;;;;23.15;15.20;;;28.80;99.90;;;;;;5074140;28;20362;-67
2023/04/26 01:31:43;;;;;;;25.02;14.45;;;28.90;99.90;;;;;;5073922;28;20492;-67
2023/04/26 01:34:10;;;;;;;35.13;20.65;;;29.00;99.90;;;;;;5073569;28;20029;-67
2023/04/26 01:36:36;;;;;;;51.10;25.40;;;29.00;99.90;;;;;;5073894;28;20023;-67
2023/04/26 01:39:03;;;;;;;37.55;21.15;;;29.00;99.90;;;;;;5067433;28;20031;-66
2023/04/26 01:41:30;;;;;;;26.65;15.75;;;29.00;99.90;;;;;;5064370;28;20079;-67
2023/04/26 01:43:56;;;;;;;19.83;11.27;;;29.10;99.90;;;;;;5066230;28;20036;-65
2023/04/26 01:46:23;;;;;;;17.00;11.05;;;29.10;99.90;;;;;;5073708;28;20027;-66
2023/04/26 01:48:49;;;;;;;91.80;69.80;;;29.10;99.90;;;;;;5058224;28;20323;-65
2023/04/26 01:51:16;;;;;;;35.70;25.30;;;29.10;99.90;;;;;;5053240;28;20025;-66
2023/04/26 01:53:43;;;;;;;34.65;24.60;;;29.20;99.90;;;;;;5053654;28;20032;-66
2023/04/26 01:56:09;;;;;;;83.40;61.50;;;29.20;99.90;;;;;;5053387;28;20060;-66
2023/04/26 01:58:36;;;;;;;52.47;36.72;;;29.30;99.90;;;;;;5053629;28;20031;-66
2023/04/26 02:01:06;;;;;;;16.80;11.43;;;29.30;99.90;;;;;;5062292;28;20020;-66
2023/04/26 02:03:33;;;;;;;15.35;9.88;;;29.30;99.90;;;;;;5053495;28;20017;-65
2023/04/26 02:06:00;;;;;;;17.70;9.45;;;29.30;99.90;;;;;;5053527;28;20048;-66
2023/04/26 02:08:26;;;;;;;14.70;10.35;;;29.20;99.90;;;;;;5056101;28;20021;-69
2023/04/26 02:10:53;;;;;;;24.80;16.50;;;29.20;99.90;;;;;;5062587;28;20060;-65
2023/04/26 02:13:19;;;;;;;17.02;12.10;;;29.30;99.90;;;;;;5053548;28;20051;-64
2023/04/26 02:15:46;;;;;;;;;;;;;;;;;;5067066;28;20020;-64
2023/04/26 02:18:12;;;;;;;;;;;;;;;;;;5071762;28;19904;-63
2023/04/26 02:20:38;;;;;;;;;;;;;;;;;;5062908;28;19920;-63
2023/04/26 02:23:04;;;;;;;;;;;;;;;;;;5061652;28;20273;-65
2023/04/26 02:25:31;;;;;;;;;;;;;;;;;;5062845;28;19911;-65
2023/04/26 02:27:57;;;;;;;;;;;;;;;;;;5063012;28;20007;-66
2023/04/26 02:30:23;;;;;;;;;;;;;;;;;;5061481;28;19904;-69
2023/04/26 02:32:49;;;;;;;;;;;;;;;;;;5063143;28;20258;-65
2023/04/26 02:35:16;;;;;;;;;;;;;;;;;;5062750;28;19908;-63
2023/04/26 02:37:42;;;;;;;;;;;;;;;;;;5061279;28;19928;-66
2023/04/26 02:40:09;;;;;;;;;;;;;;;;;;5062977;28;19912;-68
2023/04/26 02:42:36;;;;;;;;;;;;;;;;;;5062562;28;19915;-65
2023/04/26 02:45:02;;;;;;;;;;;;;;;;;;5058637;28;19905;-63
2023/04/26 02:47:28;;;;;;;;;;;;;;;;;;5056567;28;19908;-62
2023/04/26 02:49:54;;;;;;;;;;;;;;;;;;5069231;28;19951;-64
2023/04/26 02:52:21;;;;;;;;;;;;;;;;;;5053722;28;20376;-65
2023/04/26 02:54:47;;;;;;;;;;;;;;;;;;5053416;28;19905;-65
2023/04/26 02:57:13;;;;;;;;;;;;;;;;;;5053560;28;20320;-65
2023/04/26 02:59:39;;;;;;;;;;;;;;;;;;5053371;28;19947;-65
2023/04/26 03:02:06;;;;;;;;;;;;;;;;;;5054722;28;19909;-66
2023/04/26 03:04:33;;;;;;;;;;;;;;;;;;5056879;28;20379;-66
2023/04/26 03:06:59;;;;;;;;;;;;;;;;;;5057005;28;19911;-66
2023/04/26 03:09:25;;;;;;;;;;;;;;;;;;5056997;28;19912;-66
2023/04/26 03:11:51;;;;;;;;;;;;;;;;;;5056868;28;19974;-66
2023/04/26 03:14:17;;;;;;;;;;;;;;;;;;5056852;28;20353;-67
2023/04/26 03:16:44;;;;;;;;;;;;;;;;;;5056893;28;19900;-66
2023/04/26 03:19:10;;;;;;;;;;;;;;;;;;5056782;28;19956;-66
2023/04/26 03:21:36;;;;;;;;;;;;;;;;;;5067505;28;19914;-66
2023/04/26 03:24:03;;;;;;;;;;;;;;;;;;5061975;28;19970;-67
2023/04/26 03:26:29;;;;;;;;;;;;;;;;;;5065741;28;19955;-66
2023/04/26 03:28:55;;;;;;;;;;;;;;;;;;5056426;28;19905;-66
2023/04/26 03:31:22;;;;;;;;;;;;;;;;;;5058914;28;19915;-66
2023/04/26 03:33:48;;;;;;;;;;;;;;;;;;5057052;28;19905;-65
2023/04/26 03:36:15;;;;;;;;;;;;;;;;;;5056794;28;20354;-65
2023/04/26 03:38:41;;;;;;;;;;;;;;;;;;5056361;28;19908;-66
2023/04/26 03:41:07;;;;;;;;;;;;;;;;;;5056273;28;19909;-65
2023/04/26 03:43:34;;;;;;;;;;;;;;;;;;5056258;28;20266;-65
2023/04/26 03:46:00;;;;;;;;;;;;;;;;;;5056344;28;19905;-66
2023/04/26 03:48:26;;;;;;;;;;;;;;;;;;5056172;28;19904;-67
2023/04/26 03:50:52;;;;;;;;;;;;;;;;;;5061157;28;20339;-67
2023/04/26 03:53:19;;;;;;;;;;;;;;;;;;5071005;28;20376;-66
2023/04/26 03:55:45;;;;;;;;;;;;;;;;;;5076445;28;20273;-67
2023/04/26 03:58:11;;;;;;;;;;;;;;;;;;5076449;28;20307;-67
2023/04/26 04:00:37;;;;;;;;;;;;;;;;;;5076404;28;20010;-67
2023/04/26 04:03:04;;;;;;;;;;;;;;;;;;5075778;28;19952;-68
2023/04/26 04:05:30;;;;;;;;;;;;;;;;;;5075863;28;19950;-67
2023/04/26 04:07:56;;;;;;;;;;;;;;;;;;5075808;28;20315;-67
2023/04/26 04:10:22;;;;;;;;;;;;;;;;;;5075646;28;19905;-65
2023/04/26 04:12:49;;;;;;;;;;;;;;;;;;5075456;28;19934;-67
2023/04/26 04:15:15;;;;;;;;;;;;;;;;;;5075558;28;19911;-68
2023/04/26 04:17:41;;;;;;;;;;;;;;;;;;5074814;28;20364;-67
2023/04/26 04:20:08;;;;;;;;;;;;;;;;;;5073352;28;19917;-66
2023/04/26 04:22:34;;;;;;;;;;;;;;;;;;5066601;28;19999;-68
2023/04/26 04:25:00;;;;;;;;;;;;;;;;;;5056042;28;20312;-68
2023/04/26 04:27:27;;;;;;;;;;;;;;;;;;5056252;28;19909;-67
2023/04/26 04:29:54;;;;;;;;;;;;;;;;;;5054993;28;19909;-66
2023/04/26 04:32:21;;;;;;;;;;;;;;;;;;5055364;28;20349;-67
2023/04/26 04:34:48;;;;;;;;;;;;;;;;;;5055419;28;19905;-66
2023/04/26 04:37:14;;;;;;;;;;;;;;;;;;5055150;28;20353;-67
2023/04/26 04:39:40;;;;;;;;;;;;;;;;;;5055228;28;19905;-69
2023/04/26 04:42:07;;;;;;;;;;;;;;;;;;5055270;28;19905;-68
2023/04/26 04:44:34;;;;;;;;;;;;;;;;;;5055099;28;19982;-68
2023/04/26 04:47:00;;;;;;;;;;;;;;;;;;5055156;28;19904;-70
2023/04/26 04:49:26;;;;;;;;;;;;;;;;;;5055584;28;19954;-68
2023/04/26 04:51:52;;;;;;;;;;;;;;;;;;5061013;28;19951;-68
2023/04/26 04:54:18;;;;;;;;;;;;;;;;;;5075049;28;19951;-68
2023/04/26 04:56:45;;;;;;;;;;;;;;;;;;5074910;28;19905;-68
2023/04/26 04:59:11;;;;;;;;;;;;;;;;;;5074905;28;19991;-68
2023/04/26 05:01:37;;;;;;;;;;;;;;;;;;5075182;28;19905;-68
2023/04/26 05:04:03;;;;;;;;;;;;;;;;;;5083730;22;20386;-68
2023/04/26 05:06:32;;;;;;;;;;;;;;;;;;5036174;28;19999;-67
2023/04/26 05:08:58;;;;;;;;;;;;;;;;;;5035764;28;19975;-67
2023/04/26 05:11:24;;;;;;;;;;;;;;;;;;5036047;28;19912;-67
2023/04/26 05:13:50;;;;;;;;;;;;;;;;;;5036061;28;19905;-67
2023/04/26 05:16:17;;;;;;;;;;;;;;;;;;5035803;28;19912;-67
2023/04/26 05:18:43;;;;;;;;;;;;;;;;;;5035813;28;19909;-67
2023/04/26 05:21:09;;;;;;;;;;;;;;;;;;5034660;28;20055;-66
2023/04/26 05:23:35;;;;;;;;;;;;;;;;;;5030525;28;19909;-66
2023/04/26 05:26:03;;;;;;;;;;;;;;;;;;5032510;28;19986;-66
2023/04/26 05:28:29;;;;;;;;;;;;;;;;;;5033819;28;20003;-65
2023/04/26 05:30:56;;;;;;;;;;;;;;;;;;5033498;28;20274;-66
2023/04/26 05:33:22;;;;;;;;;;;;;;;;;;5023675;28;19918;-67
2023/04/26 05:35:48;;;;;;;;;;;;;;;;;;5036152;28;19913;-67
2023/04/26 05:38:15;;;;;;;;;;;;;;;;;;5048890;28;19905;-68
2023/04/26 05:40:41;;;;;;;;;;;;;;;;;;5042388;28;20011;-67
2023/04/26 05:43:07;;;;;;;;;;;;;;;;;;5041204;28;19909;-67
2023/04/26 05:45:33;;;;;;;;;;;;;;;;;;5036248;28;20350;-66
2023/04/26 05:48:00;;;;;;;;;;;;;;;;;;5029435;28;19968;-65
2023/04/26 05:50:26;;;;;;;;;;;;;;;;;;5028940;28;20900;-66
2023/04/26 05:52:52;;;;;;;;;;;;;;;;;;5036745;28;19912;-67
2023/04/26 05:55:18;;;;;;;;;;;;;;;;;;5030542;28;20178;-66
2023/04/26 05:57:45;;;;;;;;;;;;;;;;;;5033852;28;19959;-65
2023/04/26 06:00:11;;;;;;;;;;;;;;;;;;5026460;28;19924;-65
2023/04/26 06:02:37;;;;;;;;;;;;;;;;;;5027646;28;19909;-65
2023/04/26 06:05:06;;;;;;;;;;;;;;;;;;5032177;28;19924;-66
2023/04/26 06:07:32;;;;;;;;;;;;;;;;;;5033528;28;20563;-66
2023/04/26 06:09:58;;;;;;;;;;;;;;;;;;5033638;28;19952;-67
2023/04/26 06:12:24;;;;;;;;;;;;;;;;;;5027078;28;19909;-67
2023/04/26 06:14:50;;;;;;;;;;;;;;;;;;5028667;28;19909;-68
2023/04/26 06:17:17;;;;;;;;;;;;;;;;;;5031613;28;19951;-66
2023/04/26 06:19:43;;;;;;;;;;;;;;;;;;5034061;28;20421;-66
2023/04/26 06:22:09;;;;;;;;;;;;;;;;;;5030341;28;19955;-67
2023/04/26 06:24:36;;;;;;;;;;;;;;;;;;5031585;28;19912;-65
2023/04/26 06:27:02;;;;;;;;;;;;;;;;;;5032362;28;19909;-65
2023/04/26 06:29:28;;;;;;;;;;;;;;;;;;5018533;28;19913;-66
2023/04/26 06:31:54;;;;;;;;;;;;;;;;;;5026948;28;19916;-66
2023/04/26 06:34:20;;;;;;;;;;;;;;;;;;5034609;28;20342;-66
2023/04/26 06:36:47;;;;;;;;;;;;;;;;;;5031622;28;19905;-66
2023/04/26 06:39:13;;;;;;;;;;;;;;;;;;5034269;28;19917;-65
2023/04/26 06:41:39;;;;;;;;;;;;;;;;;;5038711;28;20438;-65
2023/04/26 06:44:05;;;;;;;;;;;;;;;;;;5038985;28;19906;-66
2023/04/26 06:46:32;;;;;;;;;;;;;;;;;;5039854;28;19988;-68
2023/04/26 06:48:58;;;;;;;;;;;;;;;;;;5036851;28;19953;-66
2023/04/26 06:51:24;;;;;;;;;;;;;;;;;;5036636;28;20307;-66
2023/04/26 06:53:51;;;;;;;;;;;;;;;;;;5038058;28;19909;-67
2023/04/26 06:56:17;;;;;;;;;;;;;;;;;;5035632;28;19982;-65
2023/04/26 06:58:43;;;;;;;;;;;;;;;;;;5034436;28;19905;-67
2023/04/26 07:01:10;;;;;;;;;;;;;;;;;;5039911;28;20358;-72
2023/04/26 07:03:37;;;;;;;;;;;;;;;;;;5033744;28;19912;-70
2023/04/26 07:06:03;;;;;;;;;;;;;;;;;;5038560;28;19913;-66
2023/04/26 07:08:30;;;;;;;;;;;;;;;;;;5038260;28;19928;-69
2023/04/26 07:10:56;;;;;;;;;;;;;;;;;;5036616;28;19916;-67
2023/04/26 07:13:22;;;;;;;;;;;;;;;;;;5034237;28;19921;-70
2023/04/26 07:15:48;;;;;;;;;;;;;;;;;;5038562;28;19938;-68
2023/04/26 07:18:15;;;;;;;;;;;;;;;;;;5038900;28;19927;-67
2023/04/26 07:20:41;;;;;;;;;;;;;;;;;;5037731;28;19917;-69
2023/04/26 07:23:07;;;;;;;;;;;;;;;;;;5037239;28;20377;-66
2023/04/26 07:25:33;;;;;;;;;;;;;;;;;;5056812;23;19921;-69
2023/04/26 07:27:59;;;;;;;;;;;;;;;;;;5037410;28;19917;-70
2023/04/26 07:30:26;;;;;;;;;;;;;;;;;;5038979;28;20377;-69
2023/04/26 07:32:52;;;;;;;;;;;;;;;;;;5036779;28;20176;-69
2023/04/26 07:35:18;;;;;;;;;;;;;;;;;;5036560;28;19909;-69
2023/04/26 07:37:44;;;;;;;;;;;;;;;;;;5028395;28;19967;-70
2023/04/26 07:42:47;;;;;;;;;;;;;;;;;;5103498;27;20433;-67
2023/04/26 07:45:14;;;;;;;;;;;;;;;;;;5092858;28;19908;-66
2023/04/26 07:47:40;;;;;;;;;;;;;;;;;;5109615;28;19950;-68
2023/04/26 07:50:07;;;;;;;;;;;;;;;;;;5101359;28;19978;-70
2023/04/26 07:52:33;;;;;;;;;;;;;;;;;;5100819;28;20290;-69
2023/04/26 07:54:59;;;;;;;;;;;;;;;;;;5089796;28;19930;-68
2023/04/26 07:57:25;;;;;;;;;;;;;;;;;;5094499;28;19985;-68
2023/04/26 07:59:51;;;;;;;;;;;;;;;;;;5091012;28;19912;-70
2023/04/26 08:02:18;;;;;;;;;;;;;;;;;;5088489;28;19920;-70
2023/04/26 08:04:44;;;;;;;;;;;;;;;;;;5091913;28;20361;-69
2023/04/26 08:07:10;;;;;;;;;;;;;;;;;;5092368;28;19908;-66
2023/04/26 08:09:36;;;;;;;;;;;;;;;;;;5092054;28;19914;-68
2023/04/26 08:12:02;;;;;;;;;;;;;;;;;;5089571;28;19939;-71
2023/04/26 08:14:29;;;;;;;;;;;;;;;;;;5089623;28;19908;-70
2023/04/26 08:16:55;;;;;;;;;;;;;;;;;;5088491;28;20302;-68
2023/04/26 08:19:22;;;;;;;;;;;;;;;;;;5091908;28;20057;-74
2023/04/26 08:21:48;;;;;;;;;;;;;;;;;;5089819;28;19912;-69
2023/04/26 08:24:14;;;;;;;;;;;;;;;;;;5089905;28;19912;-70
2023/04/26 08:26:40;;;;;;;;;;;;;;;;;;5085270;28;19967;-66
2023/04/26 08:29:07;;;;;;;;;;;;;;;;;;5091878;28;19927;-68
2023/04/26 08:31:33;;;;;;;;;;;;;;;;;;5089906;28;19910;-67
2023/04/26 08:33:59;;;;;;;;;;;;;;;;;;5088152;28;19935;-68
2023/04/26 08:36:26;;;;;;;;;;;;;;;;;;5089904;28;19912;-67
2023/04/26 08:38:53;;;;;;;;;;;;;;;;;;5076860;28;20281;-65
2023/04/26 08:41:20;;;;;;;;;;;;;;;;;;5078047;28;20374;-71
2023/04/26 08:43:46;;;;;;;;;;;;;;;;;;5074809;28;19991;-67
2023/04/26 08:46:12;;;;;;;;;;;;;;;;;;5078940;28;20218;-72
2023/04/26 08:48:38;;;;;;;;;;;;;;;;;;5077297;28;19909;-70
2023/04/26 08:51:05;;;;;;;;;;;;;;;;;;5076773;28;20392;-70
2023/04/26 08:53:31;;;;;;;;;;;;;;;;;;5063643;28;19913;-70
2023/04/26 08:55:57;;;;;;;;;;;;;;;;;;5069796;28;19911;-69
2023/04/26 08:58:23;;;;;;;;;;;;;;;;;;5058367;28;20361;-67
2023/04/26 09:00:49;;;;;;;;;;;;;;;;;;5067464;28;19994;-68
2023/04/26 09:03:16;;;;;;;;;;;;;;;;;;5066007;28;19910;-70
2023/04/26 09:05:43;;;;;;;;;;;;;;;;;;5066297;28;20285;-67
2023/04/26 09:08:09;;;;;;;;;;;;;;;;;;5064127;28;19908;-66
2023/04/26 09:10:35;;;;;;;;;;;;;;;;;;5063224;28;19945;-68
2023/04/26 09:13:01;;;;;;;;;;;;;;;;;;5064759;28;20345;-68
2023/04/26 09:15:27;;;;;;;;;;;;;;;;;;5062605;28;19962;-68
2023/04/26 09:17:54;;;;;;;;;;;;;;;;;;5059687;28;19986;-69
2023/04/26 09:20:20;;;;;;;;;;;;;;;;;;5063663;28;19908;-69
2023/04/26 09:22:47;;;;;;;;;;;;;;;;;;5066304;28;20344;-69
2023/04/26 09:25:13;;;;;;;;;;;;;;;;;;5065226;28;20003;-68
2023/04/26 09:27:39;;;;;;;;;;;;;;;;;;5064594;28;19975;-69
2023/04/26 09:30:06;;;;;;;;;;;;;;;;;;5059458;28;20538;-69
2023/04/26 09:32:32;;;;;;;;;;;;;;;;;;5062935;28;19952;-68
2023/04/26 09:34:58;;;;;;;;;;;;;;;;;;5061367;28;20000;-69
2023/04/26 09:37:25;;;;;;;;;;;;;;;;;;5060895;28;19921;-69
2023/04/26 09:39:51;;;;;;;;;;;;;;;;;;5055716;28;19909;-69
2023/04/26 09:42:18;;;;;;;;;;;;;;;;;;5064435;28;19978;-68
2023/04/26 09:44:45;;;;;;;;;;;;;;;;;;5056192;28;20012;-68
2023/04/26 09:47:11;;;;;;;;;;;;;;;;;;5055579;28;19905;-68
2023/04/26 09:49:37;;;;;;;;;;;;;;;;;;5055450;28;20309;-68
2023/04/26 09:52:03;;;;;;;;;;;;;;;;;;5059003;28;19954;-68
2023/04/26 09:54:30;;;;;;;;;;;;;;;;;;5055115;28;19912;-68
2023/04/26 09:56:57;;;;;;;;;;;;;;;;;;5057863;28;20365;-67
2023/04/26 09:59:23;;;;;;;;;;;;;;;;;;5057469;28;19908;-70
2023/04/26 10:01:50;;;;;;;;;;;;;;;;;;5066116;28;19955;-70
2023/04/26 10:04:16;;;;;;;;;;;;;;;;;;5062185;28;19955;-69
2023/04/26 10:06:42;;;;;;;;;;;;;;;;;;5057163;28;19913;-69
2023/04/26 10:09:09;;;;;;;;;;;;;;;;;;5059854;28;19922;-69
2023/04/26 10:11:35;;;;;;;;;;;;;;;;;;5054842;28;20066;-68
2023/04/26 10:14:01;;;;;;;;;;;;;;;;;;5054762;28;19908;-69
2023/04/26 10:16:27;;;;;;;;;;;;;;;;;;5056862;28;20375;-68
2023/04/26 10:18:54;;;;;;;;;;;;;;;;;;5066267;28;19959;-68
2023/04/26 10:21:20;;;;;;;;;;;;;;;;;;5069630;28;19959;-69
2023/04/26 10:23:46;;;;;;;;;;;;;;;;;;5055378;28;19920;-69
2023/04/26 10:26:12;;;;;;;;;;;;;;;;;;5057504;28;19909;-69
2023/04/26 10:28:38;;;;;;;;;;;;;;;;;;5061510;28;19908;-69
2023/04/26 10:31:06;;;;;;;;;;;;;;;;;;5064927;28;20476;-69
2023/04/26 10:33:32;;;;;;;;;;;;;;;;;;5059658;28;19909;-69
2023/04/26 10:35:59;;;;;;;;;;;;;;;;;;5060263;28;19912;-69
2023/04/26 10:38:25;;;;;;;;;;;;;;;;;;5071314;28;19954;-69
2023/04/26 10:40:52;;;;;;;;;;;;;;;;;;5060809;28;20369;-68
2023/04/26 10:43:18;;;;;;;;;;;;;;;;;;5058553;28;19912;-70
2023/04/26 10:45:44;;;;;;;;;;;;;;;;;;5060511;28;20302;-69
2023/04/26 10:48:11;;;;;;;;;;;;;;;;;;5066056;28;19962;-67
2023/04/26 10:50:37;;;;;;;;;;;;;;;;;;5063153;28;19958;-67
2023/04/26 10:53:03;;;;;;;;;;;;;;;;;;5063463;28;19955;-64
2023/04/26 10:55:29;;;;;;;;;;;;;;;;;;5063496;28;20331;-67
2023/04/26 10:57:56;;;;;;;;;;;;;;;;;;5062285;28;19919;-67
2023/04/26 11:00:22;;;;;;;;;;;;;;;;;;5060881;28;20380;-67
2023/04/26 11:02:48;;;;;;;;;;;;;;;;;;5062171;28;19940;-68
2023/04/26 11:05:15;;;;;;;;;;;;;;;;;;5056006;28;20362;-67
2023/04/26 11:07:41;;;;;;;;;;;;;;;;;;5058461;28;19908;-66
2023/04/26 11:10:07;;;;;;;;;;;;;;;;;;5058241;28;19913;-67
2023/04/26 11:12:33;;;;;;;;;;;;;;;;;;5054776;28;20299;-67
2023/04/26 11:14:59;;;;;;;;;;;;;;;;;;5061473;28;19908;-66
2023/04/26 11:17:26;;;;;;;;;;;;;;;;;;5055771;28;20066;-67
2023/04/26 11:19:52;;;;;;;;;;;;;;;;;;5061618;28;19913;-67
2023/04/26 11:22:18;;;;;;;;;;;;;;;;;;5063932;28;20020;-67
2023/04/26 11:24:44;;;;;;;;;;;;;;;;;;5060668;28;20003;-65
2023/04/26 11:27:10;;;;;;;;;;;;;;;;;;5061195;28;20380;-67
2023/04/26 11:29:37;;;;;;;;;;;;;;;;;;5053375;28;19915;-67
2023/04/26 11:32:03;;;;;;;;;;;;;;;;;;5068586;28;20262;-71
2023/04/26 11:34:29;;;;;;;;;;;;;;;;;;5074148;28;20416;-66
2023/04/26 11:36:55;;;;;;;;;;;;;;;;;;5069054;28;19908;-71
2023/04/26 11:39:21;;;;;;;;;;;;;;;;;;5072628;28;19909;-69
2023/04/26 11:41:48;;;;;;;;;;;;;;;;;;5061022;28;19916;-70
2023/04/26 11:44:14;;;;;;;;;;;;;;;;;;5058333;28;19948;-68
2023/04/26 11:46:40;;;;;;;;;;;;;;;;;;5056695;28;19930;-68
2023/04/26 11:49:06;;;;;;;;;;;;;;;;;;5052208;28;19905;-70
2023/04/26 11:51:32;;;;;;;;;;;;;;;;;;5053425;28;19905;-69
2023/04/26 11:53:59;;;;;;;;;;;;;;;;;;5053083;28;19912;-68
2023/04/26 11:56:25;;;;;;;;;;;;;;;;;;5053312;28;20365;-68
2023/04/26 11:58:51;;;;;;;;;;;;;;;;;;5053290;28;19905;-68
2023/04/26 12:01:18;;;;;;;;;;;;;;;;;;5052160;28;19916;-68
2023/04/26 12:03:44;;;;;;;;;;;;;;;;;;5050944;28;19909;-69
2023/04/26 12:06:10;;;;;;;;;;;;;;;;;;5051871;28;19905;-70
2023/04/26 12:08:36;;;;;;;;;;;;;;;;;;5052709;28;20373;-69
2023/04/26 12:11:02;;;;;;;;;;;;;;;;;;5052942;28;19905;-69
2023/04/26 12:13:29;;;;;;;;;;;;;;;;;;5052926;28;19912;-69
2023/04/26 12:15:55;;;;;;;;;;;;;;;;;;5052875;28;19958;-68
2023/04/26 12:18:22;;;;;;;;;;;;;;;;;;5053118;28;19905;-68
2023/04/26 12:20:48;;;;;;;;;;;;;;;;;;5053044;28;19999;-69
2023/04/26 12:23:15;;;;;;;;;;;;;;;;;;5053096;28;19908;-68
2023/04/26 12:25:41;;;;;;;;;;;;;;;;;;5052994;28;19987;-69
2023/04/26 12:28:10;;;;;;;;;;;;;;;;;;5054513;28;19904;-68
2023/04/26 12:30:36;;;;;;;;;;;;;;;;;;5072327;28;19904;-68
2023/04/26 12:33:03;;;;;;;;;;;;;;;;;;5064060;28;19905;-68
2023/04/26 12:35:29;;;;;;;;;;;;;;;;;;5063417;28;19905;-68
2023/04/26 12:37:55;;;;;;;;;;;;;;;;;;5056565;28;19935;-68
2023/04/26 12:40:22;;;;;;;;;;;;;;;;;;5056261;28;19905;-68
2023/04/26 12:42:48;;;;;;;;;;;;;;;;;;5056574;28;19970;-69
2023/04/26 12:45:14;;;;;;;;;;;;;;;;;;5056747;28;20269;-68
2023/04/26 12:47:40;;;;;;;;;;;;;;;;;;5056411;28;20000;-68
2023/04/26 12:50:07;;;;;;;;;;;;;;;;;;5056542;28;20269;-68
2023/04/26 12:52:33;;;;;;;;;;;;;;;;;;5056490;28;19912;-69
2023/04/26 12:54:59;;;;;;;;;;;;;;;;;;5056282;28;19905;-69
2023/04/26 12:57:25;;;;;;;;;;;;;;;;;;5059390;28;19923;-68
2023/04/26 12:59:52;;;;;;;;;;;;;;;;;;5076343;28;19912;-68
2023/04/26 13:02:18;;;;;;;;;;;;;;;;;;5076181;28;19908;-69
2023/04/26 13:04:44;;;;;;;;;;;;;;;;;;5076184;28;20481;-68
2023/04/26 13:07:10;;;;;;;;;;;;;;;;;;5076015;28;19908;-68
2023/04/26 13:09:37;;;;;;;;;;;;;;;;;;5076182;28;20345;-67
2023/04/26 13:12:03;;;;;;;;;;;;;;;;;;5076007;28;19950;-66
2023/04/26 13:14:29;;;;;;;;;;;;;;;;;;5076136;28;19905;-67
2023/04/26 13:16:55;;;;;;;;;;;;;;;;;;5076001;28;19908;-68
2023/04/26 13:19:22;;;;;;;;;;;;;;;;;;5075793;28;19912;-68
2023/04/26 13:21:48;;;;;;;;;;;;;;;;;;5075812;28;19948;-68
2023/04/26 13:24:15;;;;;;;;;;;;;;;;;;5076351;28;20022;-68
2023/04/26 13:26:41;;;;;;;;;;;;;;;;;;5076346;28;19911;-68
2023/04/26 13:29:07;;;;;;;;;;;;;;;;;;5075894;28;19912;-68
2023/04/26 13:31:34;;;;;;;;;;;;;;;;;;5075807;28;19905;-68
2023/04/26 13:34:01;;;;;;;;;;;;;;;;;;5075577;28;20050;-68
2023/04/26 13:36:28;;;;;;;;;;;;;;;;;;5075763;28;20376;-68
2023/04/26 13:38:54;;;;;;;;;;;;;;;;;;5075445;28;19991;-68
2023/04/26 13:41:21;;;;;;;;;;;;;;;;;;5075250;28;19917;-68
2023/04/26 13:43:47;;;;;;;;;;;;;;;;;;5075516;28;19912;-68
2023/04/26 13:46:13;;;;;;;;;;;;;;;;;;5075399;28;19928;-68
2023/04/26 13:48:40;;;;;;;;;;;;;;;;;;5075309;28;19954;-68
2023/04/26 13:51:06;;;;;;;;;;;;;;;;;;5075629;28;19919;-68
2023/04/26 13:53:32;;;;;;;;;;;;;;;;;;5075276;28;19927;-68
2023/04/26 13:55:58;;;;;;;;;;;;;;;;;;5075208;28;19911;-70
2023/04/26 13:58:25;;;;;;;;;;;;;;;;;;5075249;28;20011;-68
2023/04/26 14:00:51;;;;;;;;;;;;;;;;;;5074172;28;20003;-68
2023/04/26 14:03:17;;;;;;;;;;;;;;;;;;5064326;28;20332;-69
2023/04/26 14:05:43;;;;;;;;;;;;;;;;;;5059648;28;20372;-71
2023/04/26 14:08:11;;;;;;;;;;;;;;;;;;5066646;28;19909;-69
2023/04/26 14:10:37;;;;;;;;;;;;;;;;;;5060101;28;19908;-71
2023/04/26 14:13:03;;;;;;;;;;;;;;;;;;5063092;28;19913;-68
2023/04/26 14:15:29;;;;;;;;;;;;;;;;;;5062604;28;19927;-71
2023/04/26 14:17:56;;;;;;;;;;;;;;;;;;5062087;28;20384;-69
2023/04/26 14:20:22;;;;;;;;;;;;;;;;;;5064445;28;19923;-69
2023/04/26 14:22:49;;;;;;;;;;;;;;;;;;5058039;28;19912;-66
2023/04/26 14:25:15;;;;;;;;;;;;;;;;;;5065017;28;19966;-70
2023/04/26 14:27:42;;;;;;;;;;;;;;;;;;5072804;28;20323;-67
2023/04/26 14:30:08;;;;;;;;;;;;;;;;;;5074846;28;19912;-68
2023/04/26 14:32:34;;;;;;;;;;;;;;;;;;5075091;28;20266;-71
2023/04/26 14:35:01;;;;;;;;;;;;;;;;;;5063714;28;20384;-69
2023/04/26 14:37:27;;;;;;;;;;;;;;;;;;5063078;28;19986;-70
2023/04/26 14:39:53;;;;;;;;;;;;;;;;;;5064745;28;19904;-68
2023/04/26 14:42:19;;;;;;;;;;;;;;;;;;5062212;28;20033;-67
2023/04/26 14:44:46;;;;;;;;;;;;;;;;;;5064516;28;19984;-68
2023/04/26 14:47:12;;;;;;;;;;;;;;;;;;5061316;28;19909;-68
2023/04/26 14:49:38;;;;;;;;;;;;;;;;;;5062705;28;19991;-70
2023/04/26 14:52:05;;;;;;;;;;;;;;;;;;5063609;28;20006;-67
2023/04/26 14:54:31;;;;;;;;;;;;;;;;;;5061848;28;20413;-66
2023/04/26 14:56:57;;;;;;;;;;;;;;;;;;5057867;28;19995;-69
2023/04/26 14:59:23;;;;;;;;;;;;;;;;;;5070232;28;19912;-68
2023/04/26 15:01:51;;;;;;;;;;;;;;;;;;5062312;28;20366;-70
2023/04/26 15:04:18;;;;;;;;;;;;;;;;;;5059700;28;20331;-67
2023/04/26 15:06:44;;;;;;;;;;;;;;;;;;5061451;28;19928;-68
2023/04/26 15:09:11;;;;;;;;;;;;;;;;;;5066459;28;20357;-68
2023/04/26 15:11:37;;;;;;;;;;;;;;;;;;5069498;28;19915;-69
2023/04/26 15:14:03;;;;;;;;;;;;;;;;;;5075370;28;19928;-68
2023/04/26 15:16:29;;;;;;;;;;;;;;;;;;5076200;28;19954;-68
2023/04/26 15:18:56;;;;;;;;;;;;;;;;;;5066776;28;19936;-68
2023/04/26 15:21:22;;;;;;;;;;;;;;;;;;5061906;28;19909;-68
2023/04/26 15:23:48;;;;;;;;;;;;;;;;;;5064169;28;19904;-67
2023/04/26 15:26:14;;;;;;;;;;;;;;;;;;5062139;28;19909;-65
2023/04/26 15:28:40;;;;;;;;;;;;;;;;;;5064282;28;19916;-64
2023/04/26 15:31:06;;;;;;;;;;;;;;;;;;5062700;28;19912;-67
2023/04/26 15:33:33;;;;;;;;;;;;;;;;;;5059898;28;19917;-67
2023/04/26 15:35:59;;;;;;;;;;;;;;;;;;5064883;28;19908;-66
2023/04/26 15:38:25;;;;;;;;;;;;;;;;;;5062415;28;19975;-67
2023/04/26 15:40:52;;;;;;;;;;;;;;;;;;5059490;28;19917;-67
2023/04/26 15:43:18;;;;;;;;;;;;;;;;;;5060360;28;19909;-68
2023/04/26 15:45:45;;;;;;;;;;;;;;;;;;5059850;28;20483;-66
2023/04/26 15:48:11;;;;;;;;;;;;;;;;;;5061779;28;19919;-67
2023/04/26 15:50:37;;;;;;;;;;;;;;;;;;5063524;28;19904;-66
2023/04/26 15:53:04;;;;;;;;;;;;;;;;;;5060678;23;20366;-66
2023/04/26 15:55:30;;;;;;;;;;;;;;;;;;5023545;28;19954;-66
2023/04/26 15:57:56;;;;;;;;;;;;;;;;;;5024880;28;20032;-66
2023/04/26 16:00:22;;;;;;;;;;;;;;;;;;5023851;28;20008;-70
2023/04/26 16:02:49;;;;;;;;;;;;;;;;;;5024729;28;20278;-64
2023/04/26 16:05:15;;;;;;;;;;;;;;;;;;5029487;28;19909;-66
2023/04/26 16:07:41;;;;;;;;;;;;;;;;;;5026931;28;20329;-66